Wellington, Kentucky
Current Conditions -  °F | °C
As of 10:30 AM on Friday 19 Dec 2014 (Local Time) from KSYM Reporting Station
Overcast Overcast  
Wind Chill: 22°   Ceiling: 1700
Heat Index: 28°   Visibility: 8mi
Dew Point: 21°   Wind: 6mph
Humidity: 74%   Direction: 360°N
Pressure: 30.3"   Gusts: NA
Location:  37.98°N, 83.47°W
Report Text: KSYM 191530Z AUTO 36005KT 8SM OVC017 M02/M06 A3030 RMK AO2
Loading
Personal Weather Stations






























Interactive Weather Map New forecast layout! Learn more

10-Day Weather Forecast

Advertisements
Track Severe Weather on mobile